Time;durP1;ratioP1;P1;durP2;ratioP2;P2;SDS_P1;SDS_P2;PMS_P1;PMS_P2;Temp;Humidity;BMP_temperature;BMP_pressure;BME280_temperature;BME280_humidity;BME280_pressure;Samples;Min_cycle;Max_cycle;Signal;HPM_P1;HPM_P2
2021/05/09 00:01:33;;;;;;;10.45;9.10;;;12.80;95.30;;;;;;5147285;27;20111;-46
2021/05/09 00:04:01;;;;;;;12.32;8.77;;;12.80;95.40;;;;;;5147194;27;20054;-42
2021/05/09 00:06:28;;;;;;;10.45;7.85;;;12.90;95.50;;;;;;5148655;27;20047;-42
2021/05/09 00:08:55;;;;;;;9.98;8.38;;;12.80;95.30;;;;;;5148765;27;20421;-43
2021/05/09 00:11:21;;;;;;;9.60;8.23;;;12.80;95.30;;;;;;5148222;27;20049;-45
2021/05/09 00:13:49;;;;;;;11.07;7.60;;;12.90;95.40;;;;;;5147891;27;20050;-43
2021/05/09 00:16:15;;;;;;;12.43;8.70;;;12.90;95.20;;;;;;5148703;27;20115;-42
2021/05/09 00:18:41;;;;;;;8.90;7.88;;;12.90;95.20;;;;;;5148363;27;20051;-44
2021/05/09 00:21:07;;;;;;;10.25;7.05;;;12.80;95.10;;;;;;5148204;27;20042;-43
2021/05/09 00:23:40;;;;;;;8.25;7.30;;;12.90;95.10;;;;;;5147563;27;20047;-43
2021/05/09 00:26:08;;;;;;;9.18;7.63;;;12.80;95.10;;;;;;5145629;27;20498;-45
2021/05/09 00:28:34;;;;;;;10.02;7.90;;;12.80;95.20;;;;;;5147570;27;20042;-43
2021/05/09 00:31:00;;;;;;;9.98;8.50;;;12.70;95.20;;;;;;5146620;27;20057;-42
2021/05/09 00:33:30;;;;;;;10.93;8.23;;;12.60;95.40;;;;;;5147312;27;20562;-45
2021/05/09 00:36:13;;;;;;;9.90;8.00;;;12.60;95.50;;;;;;5146956;27;20050;-43
2021/05/09 00:38:43;;;;;;;10.70;8.13;;;12.50;95.40;;;;;;5147282;27;20666;-44
2021/05/09 00:41:09;;;;;;;8.82;7.40;;;12.40;95.50;;;;;;5148377;27;20118;-42
2021/05/09 00:43:35;;;;;;;11.25;8.20;;;12.40;95.60;;;;;;5147642;27;20719;-43
2021/05/09 00:46:04;;;;;;;9.07;8.13;;;12.30;95.80;;;;;;5128702;27;20046;-43
2021/05/09 00:48:36;;;;;;;13.40;7.80;;;12.30;95.90;;;;;;5147752;27;20045;-44
2021/05/09 00:51:03;;;;;;;10.43;7.90;;;12.20;95.90;;;;;;5145524;27;20046;-43
2021/05/09 00:53:30;;;;;;;10.68;7.85;;;12.20;95.80;;;;;;5151227;27;20055;-46
2021/05/09 00:56:02;;;;;;;9.50;7.43;;;12.20;95.90;;;;;;5117320;27;20055;-45
2021/05/09 00:58:31;;;;;;;13.13;7.20;;;12.20;95.90;;;;;;5143072;27;20073;-44
2021/05/09 01:00:57;;;;;;;10.60;8.07;;;12.30;96.00;;;;;;5147497;27;20600;-44
2021/05/09 01:03:27;;;;;;;9.63;8.30;;;12.30;95.80;;;;;;5148365;27;20137;-42
2021/05/09 01:05:56;;;;;;;10.93;8.25;;;12.30;95.70;;;;;;5126560;27;20049;-43
2021/05/09 01:08:28;;;;;;;10.82;8.52;;;12.40;95.80;;;;;;5141550;27;20079;-46
2021/05/09 01:10:55;;;;;;;13.23;7.97;;;12.50;95.70;;;;;;5147461;27;20047;-44
2021/05/09 01:13:22;;;;;;;10.20;8.32;;;12.40;95.60;;;;;;5129007;27;20383;-42
2021/05/09 01:15:48;;;;;;;12.23;7.88;;;12.40;95.70;;;;;;5125396;27;20054;-41
2021/05/09 01:18:14;;;;;;;10.20;8.50;;;12.40;95.60;;;;;;5142129;27;20078;-43
2021/05/09 01:20:41;;;;;;;12.35;8.63;;;12.30;95.70;;;;;;5127824;27;20046;-43
2021/05/09 01:23:08;;;;;;;12.88;7.63;;;12.20;95.70;;;;;;5147879;27;20047;-45
2021/05/09 01:25:41;;;;;;;9.20;7.95;;;12.20;95.80;;;;;;5146417;27;20055;-43
2021/05/09 01:28:07;;;;;;;10.55;7.78;;;12.20;95.80;;;;;;5147767;27;20583;-44
2021/05/09 01:30:34;;;;;;;11.25;8.10;;;12.10;95.80;;;;;;5147049;27;20082;-42
2021/05/09 01:33:00;;;;;;;11.20;8.30;;;12.10;95.80;;;;;;5147379;27;20042;-44
2021/05/09 01:35:27;;;;;;;10.35;8.30;;;12.00;95.80;;;;;;5147092;27;20050;-43
2021/05/09 01:37:53;;;;;;;9.52;8.10;;;12.00;95.80;;;;;;5146423;27;20043;-43
2021/05/09 01:40:20;;;;;;;13.07;9.23;;;12.00;95.80;;;;;;5145323;27;20051;-45
2021/05/09 01:42:46;;;;;;;10.55;8.32;;;11.90;96.00;;;;;;5124680;27;20051;-43
2021/05/09 01:45:16;;;;;;;9.50;7.95;;;11.80;96.00;;;;;;5126460;28;20085;-42
2021/05/09 01:47:43;;;;;;;10.73;7.70;;;11.80;95.90;;;;;;5124611;27;20046;-42
2021/05/09 01:50:18;;;;;;;12.18;8.55;;;11.70;95.90;;;;;;5122702;27;20054;-42
2021/05/09 01:52:47;;;;;;;14.10;8.35;;;11.70;96.10;;;;;;5118282;27;20055;-42
2021/05/09 01:55:16;;;;;;;13.13;8.00;;;11.60;96.00;;;;;;5114662;27;20072;-44
2021/05/09 01:57:48;;;;;;;11.85;8.93;;;11.60;96.20;;;;;;5127700;27;20054;-44
2021/05/09 02:00:22;;;;;;;14.35;8.73;;;11.50;96.20;;;;;;5128466;27;20058;-44
2021/05/09 02:03:02;;;;;;;10.13;8.32;;;11.50;96.30;;;;;;5141960;27;20062;-42
2021/05/09 02:05:32;;;;;;;11.30;8.27;;;11.40;96.30;;;;;;5146098;27;20057;-44
2021/05/09 02:08:10;;;;;;;10.52;7.97;;;11.30;96.20;;;;;;5130395;27;20047;-43
2021/05/09 02:10:43;;;;;;;9.73;7.50;;;11.30;96.30;;;;;;5126435;27;20055;-42
2021/05/09 02:13:09;;;;;;;11.18;8.13;;;11.30;96.40;;;;;;5129241;27;20087;-45
2021/05/09 02:15:43;;;;;;;10.43;8.60;;;11.30;96.50;;;;;;5128166;27;20137;-43
2021/05/09 02:18:09;;;;;;;11.13;8.98;;;11.30;96.30;;;;;;5127164;27;20054;-43
2021/05/09 02:20:41;;;;;;;11.70;8.15;;;11.30;96.30;;;;;;5111861;27;20057;-43
2021/05/09 02:23:12;;;;;;;9.65;8.05;;;11.30;96.50;;;;;;5123490;27;20175;-43
2021/05/09 02:25:39;;;;;;;10.50;7.93;;;11.40;96.40;;;;;;5152085;27;20046;-43
2021/05/09 02:28:11;;;;;;;10.43;7.63;;;11.40;96.40;;;;;;5151564;27;20053;-42
2021/05/09 02:30:38;;;;;;;10.30;8.30;;;11.40;96.40;;;;;;5132858;27;20051;-43
2021/05/09 02:33:11;;;;;;;10.65;8.55;;;11.50;96.40;;;;;;5129096;27;20491;-44
2021/05/09 02:35:41;;;;;;;10.50;8.05;;;11.40;96.20;;;;;;5113424;27;20047;-43
2021/05/09 02:38:07;;;;;;;12.35;7.90;;;11.40;96.10;;;;;;5114858;27;20118;-41
2021/05/09 02:40:34;;;;;;;10.05;8.50;;;11.40;96.10;;;;;;5131574;27;20050;-44
2021/05/09 02:43:00;;;;;;;9.77;8.07;;;11.40;96.20;;;;;;5153288;27;20042;-42
2021/05/09 02:45:27;;;;;;;10.60;7.97;;;11.40;96.00;;;;;;5130651;27;20103;-43
2021/05/09 02:47:53;;;;;;;13.43;8.80;;;11.40;96.10;;;;;;5148339;27;20558;-42
2021/05/09 02:50:21;;;;;;;9.48;7.78;;;11.30;96.10;;;;;;5131850;27;20047;-44
2021/05/09 02:52:49;;;;;;;10.75;7.95;;;11.40;96.10;;;;;;5130310;27;20046;-43
2021/05/09 02:55:19;;;;;;;11.07;8.45;;;11.40;96.10;;;;;;5158272;27;20049;-44
2021/05/09 02:57:45;;;;;;;11.00;8.20;;;11.40;96.10;;;;;;5150154;27;20056;-43
2021/05/09 03:00:13;;;;;;;10.13;8.30;;;11.30;96.00;;;;;;5129419;27;20043;-45
2021/05/09 03:02:47;;;;;;;12.85;9.10;;;11.40;96.00;;;;;;5123244;27;20486;-45
2021/05/09 03:05:18;;;;;;;12.05;9.27;;;11.30;96.00;;;;;;5131624;27;20049;-44
2021/05/09 03:07:45;;;;;;;11.73;8.40;;;11.30;96.00;;;;;;5131793;27;20608;-42
2021/05/09 03:10:13;;;;;;;12.18;8.90;;;11.30;96.00;;;;;;5131239;27;20126;-42
2021/05/09 03:12:39;;;;;;;10.43;8.05;;;11.40;96.00;;;;;;5149703;27;20043;-46
2021/05/09 03:15:06;;;;;;;9.95;8.60;;;11.40;96.00;;;;;;5129242;27;20042;-45
2021/05/09 03:17:33;;;;;;;11.30;9.18;;;11.40;96.00;;;;;;5147986;27;20050;-43
2021/05/09 03:20:00;;;;;;;9.98;8.13;;;11.50;95.90;;;;;;5146871;27;20054;-44
2021/05/09 03:22:27;;;;;;;10.02;8.20;;;11.40;95.90;;;;;;5149290;27;20054;-43
2021/05/09 03:24:54;;;;;;;11.73;7.90;;;11.50;95.90;;;;;;5147489;27;20141;-43
2021/05/09 03:27:20;;;;;;;8.95;7.25;;;11.50;95.80;;;;;;5150886;27;20047;-42
2021/05/09 03:29:46;;;;;;;9.73;7.40;;;11.50;95.80;;;;;;5149143;27;20047;-44
2021/05/09 03:32:12;;;;;;;9.68;7.53;;;11.60;95.80;;;;;;5148353;27;20510;-40
2021/05/09 03:34:38;;;;;;;10.65;8.38;;;11.60;95.70;;;;;;5126434;27;20078;-43
2021/05/09 03:37:05;;;;;;;10.93;8.00;;;11.60;95.60;;;;;;5148904;27;20053;-45
2021/05/09 03:39:31;;;;;;;11.00;7.55;;;11.50;95.60;;;;;;5149727;27;20062;-44
2021/05/09 03:41:59;;;;;;;9.80;8.38;;;11.60;95.50;;;;;;5148812;27;20060;-42
2021/05/09 03:44:26;;;;;;;9.00;7.75;;;11.70;95.50;;;;;;5146399;27;20066;-44
2021/05/09 03:46:52;;;;;;;12.40;8.07;;;11.60;95.40;;;;;;5144567;27;20042;-44
2021/05/09 03:49:18;;;;;;;11.15;8.00;;;11.70;95.40;;;;;;5146330;27;20470;-44
2021/05/09 03:51:44;;;;;;;10.85;8.02;;;11.60;95.30;;;;;;5148355;27;20062;-42
2021/05/09 03:54:10;;;;;;;9.70;7.40;;;11.70;95.30;;;;;;5148429;27;20481;-42
2021/05/09 03:56:36;;;;;;;10.35;7.55;;;11.70;95.30;;;;;;5147093;27;20054;-43
2021/05/09 03:59:06;;;;;;;12.25;7.40;;;11.60;95.30;;;;;;5149230;27;20059;-45
2021/05/09 04:01:36;;;;;;;8.88;7.20;;;11.60;95.30;;;;;;5146518;27;20054;-42
2021/05/09 04:04:03;;;;;;;9.63;7.47;;;11.60;95.30;;;;;;5141992;27;20039;-44
2021/05/09 04:06:29;;;;;;;12.10;8.05;;;11.50;95.30;;;;;;5138563;27;20047;-42
2021/05/09 04:08:55;;;;;;;11.93;8.05;;;11.50;95.40;;;;;;5149159;27;20062;-45
2021/05/09 04:11:21;;;;;;;10.18;7.85;;;11.50;95.40;;;;;;5147908;27;20047;-42
2021/05/09 04:13:50;;;;;;;12.35;7.63;;;11.50;95.50;;;;;;5133097;27;20828;-42
2021/05/09 04:16:17;;;;;;;11.02;7.88;;;11.50;95.50;;;;;;5147092;27;20050;-44
2021/05/09 04:18:44;;;;;;;11.45;7.57;;;11.50;95.50;;;;;;5144738;27;20061;-44
2021/05/09 04:21:10;;;;;;;11.15;8.02;;;11.50;95.40;;;;;;5146778;27;20043;-42
2021/05/09 04:23:39;;;;;;;12.68;8.15;;;11.50;95.40;;;;;;5147132;27;20050;-45
2021/05/09 04:26:06;;;;;;;11.38;7.78;;;11.50;95.50;;;;;;5147970;27;20046;-45
2021/05/09 04:28:33;;;;;;;11.07;7.68;;;11.60;95.40;;;;;;5146831;27;20058;-42
2021/05/09 04:30:59;;;;;;;12.73;7.68;;;11.60;95.30;;;;;;5147028;27;20487;-42
2021/05/09 04:33:27;;;;;;;10.88;7.00;;;11.80;95.10;;;;;;5146814;27;20054;-45
2021/05/09 04:35:54;;;;;;;9.68;7.32;;;11.70;95.10;;;;;;5147210;27;20049;-43
2021/05/09 04:38:21;;;;;;;10.05;7.82;;;11.90;95.00;;;;;;5144391;27;20035;-41
2021/05/09 04:40:50;;;;;;;11.15;7.63;;;11.90;95.00;;;;;;5147592;27;20046;-44
2021/05/09 04:43:17;;;;;;;13.68;7.97;;;11.90;94.90;;;;;;5148363;27;20090;-44
2021/05/09 04:45:48;;;;;;;12.27;8.20;;;12.00;94.90;;;;;;5148471;27;20173;-42
2021/05/09 04:48:15;;;;;;;9.23;8.20;;;12.00;94.80;;;;;;5146148;27;20161;-45
2021/05/09 04:50:42;;;;;;;10.55;7.90;;;12.10;94.70;;;;;;5147076;27;20047;-42
2021/05/09 04:53:26;;;;;;;10.85;8.07;;;12.10;94.80;;;;;;5147224;27;20129;-43
2021/05/09 04:55:54;;;;;;;9.68;7.43;;;12.10;94.80;;;;;;5146759;27;20500;-41
2021/05/09 04:58:21;;;;;;;14.23;7.88;;;12.10;94.80;;;;;;5146934;27;20042;-43
2021/05/09 05:00:56;;;;;;;12.35;8.05;;;12.10;94.70;;;;;;5146055;27;20039;-43
2021/05/09 05:03:26;;;;;;;12.45;7.28;;;12.30;94.60;;;;;;5145761;27;20054;-43
2021/05/09 05:05:53;;;;;;;10.93;7.65;;;12.60;94.30;;;;;;5146144;27;20064;-42
2021/05/09 05:08:19;;;;;;;9.95;7.68;;;12.80;93.90;;;;;;5147763;27;20050;-45
2021/05/09 05:10:45;;;;;;;10.40;7.40;;;13.00;93.50;;;;;;5145903;27;20129;-43
2021/05/09 05:13:25;;;;;;;11.43;8.50;;;13.20;93.10;;;;;;5137412;27;20043;-45
2021/05/09 05:15:57;;;;;;;11.43;7.38;;;13.40;92.70;;;;;;5126946;27;20558;-43
2021/05/09 05:18:24;;;;;;;12.00;7.20;;;13.60;92.50;;;;;;5126163;27;20055;-43
2021/05/09 05:21:05;;;;;;;10.50;5.80;;;13.80;92.30;;;;;;5125304;27;20050;-43
2021/05/09 05:23:32;;;;;;;10.38;6.65;;;13.90;91.60;;;;;;5143756;27;20047;-42
2021/05/09 05:25:59;;;;;;;10.02;7.40;;;13.90;92.00;;;;;;5121366;27;20046;-43
2021/05/09 05:28:31;;;;;;;10.43;6.85;;;14.00;91.90;;;;;;5147242;27;20134;-44
2021/05/09 05:30:57;;;;;;;11.57;6.78;;;14.10;91.60;;;;;;5140922;27;20047;-43
2021/05/09 05:33:26;;;;;;;8.73;6.75;;;14.30;91.60;;;;;;5138733;27;20123;-43
2021/05/09 05:35:53;;;;;;;10.52;6.82;;;14.40;91.50;;;;;;5135268;27;20055;-43
2021/05/09 05:38:21;;;;;;;8.40;6.38;;;14.50;91.20;;;;;;5127951;27;20043;-44
2021/05/09 05:40:57;;;;;;;11.70;7.57;;;14.40;91.50;;;;;;5132198;27;20103;-43
2021/05/09 05:43:29;;;;;;;9.55;6.57;;;14.40;91.10;;;;;;5147865;27;20107;-43
2021/05/09 05:45:57;;;;;;;10.00;7.05;;;14.70;91.40;;;;;;5147368;27;20489;-42
2021/05/09 05:48:30;;;;;;;8.65;6.45;;;14.90;90.60;;;;;;5147686;27;20138;-42
2021/05/09 05:51:01;;;;;;;9.15;5.95;;;15.00;87.90;;;;;;5143767;27;20053;-41
2021/05/09 05:53:33;;;;;;;8.57;6.65;;;15.10;90.20;;;;;;5143244;27;20042;-44
2021/05/09 05:56:04;;;;;;;9.30;6.63;;;15.30;90.60;;;;;;5143398;27;20061;-43
2021/05/09 05:58:33;;;;;;;9.95;6.78;;;15.60;89.30;;;;;;5138640;27;20526;-42
2021/05/09 06:01:00;;;;;;;9.38;5.70;;;15.80;90.30;;;;;;5130036;27;20057;-44
2021/05/09 06:03:29;;;;;;;9.48;5.63;;;15.90;89.50;;;;;;5150018;27;20559;-44
2021/05/09 06:06:01;;;;;;;10.20;5.82;;;16.00;90.10;;;;;;5149338;27;20062;-43
2021/05/09 06:08:27;;;;;;;9.55;6.57;;;16.00;89.50;;;;;;5146686;27;20043;-43
2021/05/09 06:10:56;;;;;;;8.57;5.80;;;16.10;86.10;;;;;;5150961;27;20054;-43
2021/05/09 06:13:28;;;;;;;11.60;7.25;;;16.20;87.40;;;;;;5147152;27;20119;-43
2021/05/09 06:16:00;;;;;;;9.80;5.80;;;16.30;86.50;;;;;;5144751;27;20055;-42
2021/05/09 06:18:26;;;;;;;9.30;6.20;;;16.50;85.90;;;;;;5150563;27;20051;-43
2021/05/09 06:20:55;;;;;;;9.13;6.13;;;16.60;87.10;;;;;;5155464;27;21065;-43
2021/05/09 06:23:28;;;;;;;9.93;5.93;;;16.70;85.80;;;;;;5160049;27;20047;-43
2021/05/09 06:25:56;;;;;;;7.78;6.10;;;16.90;86.00;;;;;;5150062;27;20054;-45
2021/05/09 06:28:25;;;;;;;10.93;6.70;;;16.90;83.70;;;;;;5152352;27;20054;-44
2021/05/09 06:30:54;;;;;;;8.20;6.10;;;16.90;84.00;;;;;;5150612;27;20943;-44
2021/05/09 06:33:25;;;;;;;8.15;6.20;;;16.90;84.20;;;;;;5154625;27;20042;-43
2021/05/09 06:35:56;;;;;;;10.05;7.53;;;17.10;85.10;;;;;;5149291;27;20074;-42
2021/05/09 06:38:24;;;;;;;10.32;8.73;;;17.30;82.90;;;;;;5150996;27;20130;-45
2021/05/09 06:40:54;;;;;;;9.43;6.30;;;17.30;83.50;;;;;;5151251;27;20069;-42
2021/05/09 06:43:22;;;;;;;9.73;6.38;;;17.30;83.30;;;;;;5150329;27;20078;-44
2021/05/09 06:45:52;;;;;;;10.43;6.25;;;17.40;82.70;;;;;;5148047;27;20073;-45
2021/05/09 06:48:22;;;;;;;8.57;6.53;;;17.60;83.70;;;;;;5155736;27;20069;-44
2021/05/09 06:50:54;;;;;;;8.32;5.55;;;17.60;80.60;;;;;;5131956;27;20046;-44
2021/05/09 06:53:23;;;;;;;;;;;17.60;81.60;;;;;;5149567;27;20107;-46
2021/05/09 06:55:58;;;;;;;9.63;5.43;;;17.70;79.70;;;;;;5148723;27;19922;-43
2021/05/09 06:58:27;;;;;;;7.18;5.68;;;17.90;82.20;;;;;;5149527;27;20051;-43
2021/05/09 07:00:56;;;;;;;11.48;7.22;;;18.00;80.50;;;;;;5149409;27;20051;-44
2021/05/09 07:03:24;;;;;;;8.65;5.78;;;18.10;80.20;;;;;;5149349;27;20042;-44
2021/05/09 07:05:54;;;;;;;9.25;5.63;;;18.10;80.00;;;;;;5148935;27;20054;-44
2021/05/09 07:08:25;;;;;;;8.50;5.70;;;18.30;79.80;;;;;;5150634;27;20111;-44
2021/05/09 07:10:51;;;;;;;9.68;6.45;;;18.50;80.40;;;;;;5148767;27;20070;-44
2021/05/09 07:13:20;;;;;;;9.38;6.80;;;18.40;80.30;;;;;;5146974;27;20099;-43
2021/05/09 07:15:56;;;;;;;8.68;5.40;;;18.40;80.40;;;;;;5134515;27;20498;-46
2021/05/09 07:18:22;;;;;;;10.52;8.30;;;18.20;77.00;;;;;;5119634;27;20138;-46
2021/05/09 07:20:56;;;;;;;8.93;6.22;;;18.00;79.60;;;;;;5139940;27;20096;-47
2021/05/09 07:23:26;;;;;;;13.70;10.95;;;17.90;79.40;;;;;;5143132;27;20042;-45
2021/05/09 07:25:54;;;;;;;7.85;5.18;;;17.80;80.30;;;;;;5147951;27;20043;-45
2021/05/09 07:28:21;;;;;;;7.15;4.50;;;17.80;80.30;;;;;;5147479;27;20047;-45
2021/05/09 07:30:50;;;;;;;6.57;5.53;;;17.80;80.60;;;;;;5146910;27;20133;-46
2021/05/09 07:33:20;;;;;;;7.43;4.95;;;17.90;81.10;;;;;;5147318;27;20042;-45
2021/05/09 07:35:54;;;;;;;7.35;5.55;;;18.00;80.80;;;;;;5145482;27;20046;-44
2021/05/09 07:38:21;;;;;;;7.90;4.50;;;18.10;80.10;;;;;;5145594;27;20068;-45
2021/05/09 07:40:50;;;;;;;5.47;3.92;;;18.30;80.10;;;;;;5149874;27;20090;-45
2021/05/09 07:43:17;;;;;;;6.45;4.20;;;18.50;79.10;;;;;;5153614;27;20074;-46
2021/05/09 07:45:46;;;;;;;23.52;19.52;;;18.70;78.10;;;;;;5147022;27;20110;-44
2021/05/09 07:48:15;;;;;;;6.65;5.30;;;18.90;78.70;;;;;;5136165;27;20047;-44
2021/05/09 07:50:41;;;;;;;8.15;5.22;;;18.80;75.00;;;;;;5127181;27;20107;-45
2021/05/09 07:53:13;;;;;;;6.63;4.10;;;18.80;76.90;;;;;;5127728;27;20047;-47
2021/05/09 07:55:43;;;;;;;9.40;6.30;;;18.80;76.60;;;;;;5141587;27;20493;-43
2021/05/09 07:58:19;;;;;;;6.78;3.88;;;18.90;76.90;;;;;;5147174;27;20162;-45
2021/05/09 08:00:46;;;;;;;9.07;5.55;;;19.00;76.50;;;;;;5148714;27;20061;-46
2021/05/09 08:03:15;;;;;;;6.63;4.75;;;19.20;76.20;;;;;;5145743;27;20145;-43
2021/05/09 08:05:42;;;;;;;8.30;4.72;;;19.30;75.10;;;;;;5148378;27;20046;-45
2021/05/09 08:08:08;;;;;;;28.25;25.20;;;19.40;75.30;;;;;;5146764;27;20047;-49
2021/05/09 08:10:38;;;;;;;10.07;7.60;;;19.50;76.00;;;;;;5147797;27;20043;-45
2021/05/09 08:13:06;;;;;;;12.55;7.22;;;19.60;75.20;;;;;;5147322;27;20051;-47
2021/05/09 08:15:33;;;;;;;14.73;11.85;;;19.80;75.20;;;;;;5148065;27;20604;-45
2021/05/09 08:17:59;;;;;;;7.45;5.75;;;20.00;74.60;;;;;;5147144;27;20085;-47
2021/05/09 08:20:29;;;;;;;13.60;10.27;;;20.20;74.50;;;;;;5146947;27;20078;-45
2021/05/09 08:22:59;;;;;;;9.45;6.35;;;20.50;74.40;;;;;;5146535;27;20134;-44
2021/05/09 08:25:28;;;;;;;4.65;3.08;;;20.90;73.30;;;;;;5147757;27;20056;-44
2021/05/09 08:27:57;;;;;;;5.55;3.53;;;21.10;72.20;;;;;;5147866;27;20055;-46
2021/05/09 08:30:28;;;;;;;7.65;3.75;;;21.30;72.60;;;;;;5129490;27;20187;-46
2021/05/09 08:32:55;;;;;;;5.95;3.67;;;21.30;72.00;;;;;;5149949;27;20061;-47
2021/05/09 08:35:23;;;;;;;6.38;3.40;;;21.50;71.30;;;;;;5146999;27;20502;-43
2021/05/09 08:37:51;;;;;;;7.07;3.38;;;21.70;70.00;;;;;;5145585;27;20050;-42
2021/05/09 08:40:18;;;;;;;5.50;3.47;;;21.90;69.70;;;;;;5147296;27;20502;-45
2021/05/09 08:42:48;;;;;;;5.90;3.15;;;22.20;68.70;;;;;;5146339;27;20046;-44
2021/05/09 08:45:18;;;;;;;5.68;3.22;;;22.30;67.80;;;;;;5144875;27;20050;-43
2021/05/09 08:47:47;;;;;;;6.15;3.38;;;22.30;66.70;;;;;;5143016;27;20509;-46
2021/05/09 08:50:16;;;;;;;4.68;2.85;;;22.50;67.30;;;;;;5128280;27;20059;-44
2021/05/09 08:52:45;;;;;;;7.68;4.88;;;22.70;66.30;;;;;;5145353;27;20849;-46
2021/05/09 08:55:16;;;;;;;10.05;8.68;;;22.80;66.80;;;;;;5152621;27;20050;-44
2021/05/09 08:57:43;;;;;;;;;;;22.80;64.30;;;;;;5146850;27;20050;-47
2021/05/09 09:00:15;;;;;;;10.45;8.80;;;22.90;65.00;;;;;;5146797;27;20022;-44
2021/05/09 09:02:42;;;;;;;8.20;4.38;;;22.90;64.30;;;;;;5145678;27;20632;-43
2021/05/09 09:05:09;;;;;;;3.95;2.72;;;23.20;63.60;;;;;;5146351;27;20103;-44
2021/05/09 09:07:47;;;;;;;4.38;2.45;;;23.30;64.50;;;;;;5146918;27;20561;-43
2021/05/09 09:10:41;;;;;;;4.13;2.92;;;23.60;60.80;;;;;;5145778;27;20383;-43
2021/05/09 09:13:31;;;;;;;5.05;3.05;;;23.40;60.70;;;;;;5060438;28;20072;-45
2021/05/09 09:16:01;;;;;;;4.40;2.30;;;23.70;57.90;;;;;;5064321;28;20400;-47
2021/05/09 09:18:35;;;;;;;2.78;2.28;;;24.00;60.70;;;;;;5061970;28;20806;-45
2021/05/09 09:21:29;;;;;;;5.50;1.95;;;24.20;58.90;;;;;;5062574;28;20063;-45
2021/05/09 09:24:07;;;;;;;5.13;2.53;;;24.50;59.80;;;;;;5061928;28;20522;-46
2021/05/09 09:26:52;;;;;;;3.20;2.05;;;24.40;57.20;;;;;;5080211;28;20554;-43
2021/05/09 09:29:29;;;;;;;4.07;2.05;;;24.70;54.60;;;;;;5080169;28;20048;-44
2021/05/09 09:32:04;;;;;;;4.35;2.20;;;24.60;53.80;;;;;;5062248;28;20048;-46
2021/05/09 09:34:39;;;;;;;2.90;1.55;;;23.90;55.30;;;;;;5061470;28;20127;-44
2021/05/09 09:37:10;;;;;;;3.40;2.15;;;23.70;56.70;;;;;;5063831;28;20136;-45
2021/05/09 09:40:03;;;;;;;8.60;5.70;;;23.50;56.40;;;;;;5079681;28;20052;-42
2021/05/09 09:42:36;;;;;;;5.07;1.83;;;23.30;55.30;;;;;;5080329;28;20465;-45
2021/05/09 09:45:19;;;;;;;5.20;2.03;;;23.00;56.60;;;;;;5076982;28;20056;-44
2021/05/09 09:47:56;;;;;;;4.85;1.88;;;22.50;56.40;;;;;;5056021;28;20067;-44
2021/05/09 09:50:38;;;;;;;3.00;1.70;;;22.30;58.20;;;;;;5114011;27;20134;-43
2021/05/09 09:53:39;;;;;;;5.40;2.63;;;22.10;60.30;;;;;;5147173;27;20079;-43
2021/05/09 09:56:10;;;;;;;4.82;2.50;;;21.80;63.80;;;;;;5147162;27;20054;-48
2021/05/09 09:58:56;;;;;;;5.50;2.38;;;21.80;65.90;;;;;;5146308;27;20050;-44
2021/05/09 10:01:33;;;;;;;3.60;2.00;;;21.80;65.70;;;;;;5144397;27;20143;-44
2021/05/09 10:04:04;;;;;;;5.70;2.33;;;21.90;63.40;;;;;;5143161;27;20058;-45
2021/05/09 10:06:31;;;;;;;3.50;2.17;;;21.90;62.90;;;;;;5146348;27;20038;-42
2021/05/09 10:08:58;;;;;;;4.68;2.17;;;22.00;62.20;;;;;;5144999;27;20050;-43
2021/05/09 10:11:26;;;;;;;4.38;2.53;;;22.30;63.20;;;;;;5146163;27;20073;-45
2021/05/09 10:13:53;;;;;;;12.68;10.88;;;22.60;62.30;;;;;;5146179;27;20047;-44
2021/05/09 10:16:26;;;;;;;20.98;18.75;;;23.30;62.00;;;;;;5153142;27;20054;-47
2021/05/09 10:19:00;;;;;;;9.45;6.55;;;23.70;60.20;;;;;;5150350;27;20065;-45
2021/05/09 10:21:28;;;;;;;5.65;2.60;;;23.80;59.00;;;;;;5151250;27;20047;-46
2021/05/09 10:24:35;;;;;;;4.70;2.40;;;23.70;58.80;;;;;;5159061;27;20045;-45
2021/05/09 10:27:10;;;;;;;3.80;2.28;;;23.90;57.30;;;;;;5054446;28;20132;-44
2021/05/09 10:29:40;;;;;;;4.35;2.92;;;24.20;57.70;;;;;;5051684;28;20051;-44
2021/05/09 10:32:18;;;;;;;4.20;2.30;;;24.20;54.10;;;;;;5057048;28;20199;-45
2021/05/09 10:34:57;;;;;;;3.20;1.88;;;25.10;52.40;;;;;;5049857;28;20053;-45
2021/05/09 10:37:48;;;;;;;4.00;1.98;;;25.60;53.40;;;;;;5042987;28;20049;-44
2021/05/09 10:40:33;;;;;;;3.63;1.23;;;26.10;48.30;;;;;;5026771;28;20052;-45
2021/05/09 10:43:05;;;;;;;3.83;2.03;;;26.10;46.10;;;;;;5048940;28;20056;-44
2021/05/09 10:45:59;;;;;;;3.60;2.50;;;25.80;46.90;;;;;;5065078;28;20849;-44
2021/05/09 10:48:37;;;;;;;3.40;1.83;;;26.10;48.80;;;;;;5039445;28;20122;-45
2021/05/09 10:51:06;;;;;;;4.85;2.05;;;26.70;50.90;;;;;;5051431;28;20056;-43
2021/05/09 10:56:28;;;;;;;2.47;1.80;;;27.10;45.30;;;;;;5051358;28;20075;-45
2021/05/09 10:58:58;;;;;;;8.73;4.65;;;27.00;45.90;;;;;;5033456;28;20059;-45
2021/05/09 11:01:34;;;;;;;5.07;2.72;;;26.70;44.30;;;;;;5046505;28;20045;-45
2021/05/09 11:04:02;;;;;;;3.42;1.42;;;27.00;47.50;;;;;;5126755;27;20057;-44
2021/05/09 11:06:29;;;;;;;5.00;2.78;;;27.30;48.40;;;;;;5153919;27;20050;-46
2021/05/09 11:09:03;;;;;;;2.65;1.35;;;27.10;47.20;;;;;;5151306;27;20042;-43
2021/05/09 11:11:29;;;;;;;5.68;2.05;;;26.90;44.20;;;;;;5149890;27;20054;-44
2021/05/09 11:14:02;;;;;;;4.15;1.88;;;26.70;44.70;;;;;;5135557;27;20043;-43
2021/05/09 11:16:39;;;;;;;2.58;1.33;;;26.50;45.70;;;;;;5128908;27;20047;-44
2021/05/09 11:19:14;;;;;;;4.63;1.30;;;26.10;45.70;;;;;;5146921;27;20049;-44
2021/05/09 11:21:49;;;;;;;2.30;0.98;;;26.30;48.90;;;;;;5150177;27;20051;-44
2021/05/09 11:24:24;;;;;;;2.65;1.20;;;26.00;46.20;;;;;;5149536;27;20046;-44
2021/05/09 11:26:54;;;;;;;1.90;1.20;;;25.60;47.20;;;;;;5148801;27;20047;-43
2021/05/09 11:29:22;;;;;;;4.05;1.13;;;25.40;46.80;;;;;;5148886;27;20057;-43
2021/05/09 11:31:57;;;;;;;3.38;1.27;;;25.90;47.10;;;;;;5149277;27;20137;-45
2021/05/09 11:34:27;;;;;;;2.95;1.42;;;26.70;48.10;;;;;;5147468;27;20443;-42
2021/05/09 11:36:58;;;;;;;4.13;1.33;;;27.20;45.50;;;;;;5149252;27;20050;-45
2021/05/09 11:39:33;;;;;;;5.07;1.30;;;27.60;45.50;;;;;;5149055;27;20300;-44
2021/05/09 11:42:06;;;;;;;2.55;1.10;;;27.60;43.00;;;;;;5150864;27;20074;-44
2021/05/09 11:44:40;;;;;;;2.38;1.60;;;27.20;44.30;;;;;;5148921;27;20517;-47
2021/05/09 11:47:09;;;;;;;3.55;1.45;;;27.10;44.90;;;;;;5149241;27;20074;-47
2021/05/09 11:49:37;;;;;;;3.80;1.50;;;27.20;45.80;;;;;;5147987;27;20099;-44
2021/05/09 11:52:11;;;;;;;4.60;1.30;;;27.60;46.10;;;;;;5156646;27;20512;-46
2021/05/09 11:54:50;;;;;;;2.55;1.20;;;27.80;44.40;;;;;;5148970;27;20043;-48
2021/05/09 11:57:18;;;;;;;2.03;1.33;;;27.50;46.50;;;;;;5147619;27;20042;-44
2021/05/09 11:59:46;;;;;;;4.90;1.30;;;27.30;45.30;;;;;;5148373;27;20050;-45
2021/05/09 12:02:15;;;;;;;2.17;1.17;;;27.50;44.70;;;;;;5148218;27;20051;-47
2021/05/09 12:04:43;;;;;;;2.15;1.20;;;28.00;45.00;;;;;;5147682;27;20083;-45
2021/05/09 12:07:14;;;;;;;2.42;1.15;;;28.00;46.10;;;;;;5147756;27;20553;-46
2021/05/09 12:09:40;;;;;;;3.50;1.38;;;27.80;44.90;;;;;;5147556;27;20092;-47
2021/05/09 12:12:07;;;;;;;3.38;1.25;;;27.40;44.60;;;;;;5145993;27;20557;-46
2021/05/09 12:14:39;;;;;;;2.80;1.60;;;27.00;43.20;;;;;;5147572;27;20882;-47
2021/05/09 12:17:16;;;;;;;;;;;26.80;44.50;;;;;;5149582;27;20054;-45
2021/05/09 12:19:45;;;;;;;9.45;8.45;;;26.90;47.10;;;;;;5130223;27;19919;-44
2021/05/09 12:22:13;;;;;;;3.65;2.58;;;27.00;46.70;;;;;;5146939;27;20049;-48
2021/05/09 12:24:47;;;;;;;6.18;3.30;;;27.10;48.10;;;;;;5147627;27;20189;-44
2021/05/09 12:27:13;;;;;;;3.30;2.13;;;27.00;46.50;;;;;;5151604;27;20093;-44
2021/05/09 12:29:48;;;;;;;3.20;2.33;;;26.60;47.70;;;;;;5167971;27;20106;-42
2021/05/09 12:32:30;;;;;;;3.58;1.75;;;26.40;49.10;;;;;;5165616;27;20043;-44
2021/05/09 12:35:17;;;;;;;3.35;1.85;;;26.20;50.90;;;;;;5148251;27;20245;-44
2021/05/09 12:37:49;;;;;;;5.32;2.20;;;26.00;51.50;;;;;;5142873;27;20489;-45
2021/05/09 12:40:28;;;;;;;5.25;1.70;;;25.90;50.80;;;;;;5146815;27;20078;-48
2021/05/09 12:43:11;;;;;;;7.47;6.60;;;25.80;51.40;;;;;;5158560;27;20584;-43
2021/05/09 12:45:52;;;;;;;6.68;5.60;;;25.70;54.10;;;;;;5126587;27;20058;-43
2021/05/09 12:48:20;;;;;;;3.30;1.92;;;25.70;53.20;;;;;;5142732;27;20039;-43
2021/05/09 12:50:51;;;;;;;4.40;2.63;;;25.60;53.20;;;;;;5146531;27;20875;-44
2021/05/09 12:53:48;;;;;;;2.20;1.45;;;25.30;53.50;;;;;;5147789;27;20118;-43
2021/05/09 12:56:22;;;;;;;2.90;1.42;;;25.10;55.90;;;;;;5126712;27;20072;-43
2021/05/09 12:59:10;;;;;;;4.25;1.63;;;24.70;57.90;;;;;;5145577;27;20075;-43
2021/05/09 13:01:39;;;;;;;4.15;1.88;;;24.50;58.60;;;;;;5146004;27;20739;-42
2021/05/09 13:04:35;;;;;;;5.85;2.05;;;24.20;57.50;;;;;;5146496;27;20073;-44